createdAt,value
2018-04-18T00:02:11.483Z,9.63
2018-04-18T00:04:38.189Z,9.50
2018-04-18T00:07:04.893Z,8.77
2018-04-18T00:09:31.604Z,8.53
2018-04-18T00:11:58.343Z,9.57
2018-04-18T00:14:25.067Z,8.97
2018-04-18T00:16:51.818Z,8.70
2018-04-18T00:19:18.523Z,9.70
2018-04-18T00:21:45.222Z,9.37
2018-04-18T00:24:11.952Z,9.60
2018-04-18T00:26:38.655Z,9.33
2018-04-18T00:29:05.368Z,9.17
2018-04-18T00:31:32.067Z,8.83
2018-04-18T00:33:58.795Z,9.33
2018-04-18T00:36:25.536Z,9.87
2018-04-18T00:38:52.244Z,9.80
2018-04-18T00:41:18.959Z,9.63
2018-04-18T00:43:45.659Z,9.87
2018-04-18T00:46:12.364Z,9.93
2018-04-18T00:48:39.088Z,9.50
2018-04-18T00:51:05.783Z,9.80
2018-04-18T00:53:32.485Z,9.70
2018-04-18T00:55:59.223Z,10.67
2018-04-18T00:58:25.931Z,10.80
2018-04-18T01:00:52.647Z,9.83
2018-04-18T01:03:19.352Z,11.30
2018-04-18T01:05:46.062Z,10.37
2018-04-18T01:08:12.767Z,10.50
2018-04-18T01:10:39.472Z,10.50
2018-04-18T01:13:06.204Z,10.60
2018-04-18T01:15:32.912Z,10.27
2018-04-18T01:17:59.628Z,10.60
2018-04-18T01:20:26.336Z,11.33
2018-04-18T01:22:53.043Z,10.80
2018-04-18T01:25:19.779Z,11.50
2018-04-18T01:27:46.493Z,10.80
2018-04-18T01:30:13.203Z,11.93
2018-04-18T01:32:39.914Z,12.03
2018-04-18T01:35:06.636Z,12.27
2018-04-18T01:37:33.373Z,12.73
2018-04-18T01:40:00.081Z,12.80
2018-04-18T01:42:26.808Z,12.03
2018-04-18T01:44:53.520Z,12.37
2018-04-18T01:47:20.231Z,13.10
2018-04-18T01:49:46.975Z,12.47
2018-04-18T01:52:13.679Z,12.27
2018-04-18T01:54:40.392Z,11.83
2018-04-18T01:57:07.100Z,11.83
2018-04-18T01:59:33.808Z,12.47
2018-04-18T02:02:00.548Z,11.77
2018-04-18T02:04:27.268Z,12.97
2018-04-18T02:06:53.971Z,12.30
2018-04-18T02:09:20.679Z,12.17
2018-04-18T02:18:29.940Z,10.90
2018-04-18T02:20:56.668Z,10.80
2018-04-18T02:23:23.392Z,11.17
2018-04-18T02:25:50.104Z,11.07
2018-04-18T02:28:16.815Z,11.97
2018-04-18T02:30:43.511Z,11.00
2018-04-18T02:33:10.258Z,11.47
2018-04-18T02:35:36.968Z,11.13
2018-04-18T02:38:03.676Z,10.17
2018-04-18T02:40:30.380Z,11.63
2018-04-18T02:42:57.380Z,9.90
2018-04-18T02:45:24.114Z,10.70
2018-04-18T02:47:50.821Z,11.37
2018-04-18T02:50:17.544Z,9.93
2018-04-18T02:52:44.258Z,10.20
2018-04-18T02:55:10.969Z,10.67
2018-04-18T02:57:37.715Z,10.30
2018-04-18T03:00:04.425Z,10.07
2018-04-18T03:02:31.133Z,10.43
2018-04-18T03:04:57.864Z,10.00
2018-04-18T03:07:24.570Z,10.07
2018-04-18T03:09:51.343Z,9.70
2018-04-18T03:12:18.082Z,9.53
2018-04-18T03:14:44.797Z,10.27
2018-04-18T03:17:11.499Z,9.80
2018-04-18T03:19:38.224Z,9.43
2018-04-18T03:22:04.955Z,9.33
2018-04-18T03:24:31.853Z,9.30
2018-04-18T03:26:58.561Z,8.90
2018-04-18T03:29:25.269Z,9.33
2018-04-18T03:31:51.975Z,8.97
2018-04-18T03:34:18.720Z,8.40
2018-04-18T03:36:45.423Z,8.47
2018-04-18T03:39:12.131Z,9.00
2018-04-18T03:41:38.829Z,8.60
2018-04-18T03:44:05.532Z,8.33
2018-04-18T03:46:34.184Z,7.53
2018-04-18T03:49:00.892Z,8.13
2018-04-18T03:51:27.589Z,7.90
2018-04-18T03:53:54.279Z,7.17
2018-04-18T03:56:20.983Z,7.43
2018-04-18T03:58:47.699Z,7.40
2018-04-18T04:01:14.424Z,6.97
2018-04-18T04:03:41.127Z,8.17
2018-04-18T04:06:07.815Z,7.13
2018-04-18T04:08:34.511Z,7.43
2018-04-18T04:11:01.232Z,7.20
2018-04-18T04:13:27.955Z,6.70
2018-04-18T04:15:54.652Z,6.60
2018-04-18T04:21:05.207Z,6.87
2018-04-18T04:23:47.531Z,6.77
2018-04-18T04:26:14.227Z,7.00
2018-04-18T04:28:40.959Z,6.53
2018-04-18T04:31:07.657Z,6.37
2018-04-18T04:33:34.364Z,6.30
2018-04-18T04:36:01.076Z,6.80
2018-04-18T04:41:05.748Z,6.80
2018-04-18T04:43:32.439Z,6.40
2018-04-18T04:45:59.151Z,6.67
2018-04-18T04:48:25.849Z,6.03
2018-04-18T04:50:52.547Z,6.10
2018-04-18T04:55:57.252Z,6.27
2018-04-18T05:01:01.663Z,6.60
2018-04-18T05:06:06.243Z,6.00
2018-04-18T05:08:32.956Z,6.40
2018-04-18T05:13:37.448Z,6.33
2018-04-18T05:16:04.143Z,6.10
2018-04-18T05:23:35.615Z,5.80
2018-04-18T05:31:06.356Z,5.43
2018-04-18T05:36:05.227Z,5.73
2018-04-18T05:38:31.923Z,5.73
2018-04-18T05:40:58.647Z,5.53
2018-04-18T05:43:25.352Z,6.10
2018-04-18T05:45:52.159Z,6.10
2018-04-18T05:48:18.856Z,5.67
2018-04-18T05:50:45.568Z,6.30
2018-04-18T05:53:12.274Z,5.93
2018-04-18T05:55:38.984Z,5.70
2018-04-18T05:58:05.709Z,5.53
2018-04-18T06:00:32.859Z,5.17
2018-04-18T06:02:59.567Z,6.20
2018-04-18T06:05:26.268Z,6.10
2018-04-18T06:07:53.013Z,6.33
2018-04-18T06:10:19.764Z,5.67
2018-04-18T06:12:46.486Z,5.73
2018-04-18T06:15:13.204Z,5.73
2018-04-18T06:17:39.941Z,5.47
2018-04-18T06:20:06.640Z,6.03
2018-04-18T06:22:33.399Z,5.83
2018-04-18T06:25:00.108Z,6.17
2018-04-18T06:27:26.944Z,6.70
2018-04-18T06:29:53.650Z,6.83
2018-04-18T06:32:20.356Z,6.33
2018-04-18T06:34:47.075Z,6.33
2018-04-18T06:37:13.777Z,6.60
2018-04-18T06:39:40.484Z,6.57
2018-04-18T06:42:07.202Z,5.77
2018-04-18T06:44:33.904Z,5.73
2018-04-18T06:47:00.740Z,6.33
2018-04-18T06:49:27.451Z,6.23
2018-04-18T06:51:54.470Z,7.60
2018-04-18T06:54:21.186Z,6.37
2018-04-18T06:56:47.895Z,6.73
2018-04-18T06:59:14.624Z,7.20
2018-04-18T07:01:41.330Z,6.83
2018-04-18T07:04:08.055Z,7.20
2018-04-18T07:06:34.760Z,6.47
2018-04-18T07:09:01.461Z,6.67
2018-04-18T07:11:28.223Z,7.30
2018-04-18T07:13:54.944Z,7.23
2018-04-18T07:16:21.655Z,6.43
2018-04-18T07:18:48.388Z,6.93
2018-04-18T07:21:15.091Z,6.57
2018-04-18T07:23:41.800Z,6.37
2018-04-18T07:26:08.503Z,6.13
2018-04-18T07:28:35.211Z,6.67
2018-04-18T07:31:01.949Z,6.23
2018-04-18T07:33:28.665Z,7.27
2018-04-18T07:35:55.381Z,6.60
2018-04-18T07:38:22.111Z,6.10
2018-04-18T07:40:48.816Z,6.80
2018-04-18T07:43:15.584Z,6.37
2018-04-18T07:45:42.288Z,6.87
2018-04-18T07:48:08.995Z,6.93
2018-04-18T07:50:35.701Z,6.60
2018-04-18T07:53:02.429Z,5.70
2018-04-18T07:55:29.158Z,6.30
2018-04-18T07:57:55.864Z,6.57
2018-04-18T08:00:22.615Z,6.40
2018-04-18T08:02:49.312Z,6.27
2018-04-18T08:05:16.020Z,6.63
2018-04-18T08:07:42.743Z,6.80
2018-04-18T08:10:09.445Z,6.23
2018-04-18T08:12:36.156Z,5.93
2018-04-18T08:15:02.865Z,6.50
2018-04-18T08:17:29.568Z,6.93
2018-04-18T08:19:56.304Z,6.17
2018-04-18T08:22:23.009Z,6.37
2018-04-18T08:24:49.711Z,6.47
2018-04-18T08:27:16.420Z,6.17
2018-04-18T08:29:43.126Z,6.77
2018-04-18T08:32:09.851Z,6.77
2018-04-18T08:34:36.556Z,7.20
2018-04-18T08:37:03.259Z,7.30
2018-04-18T08:39:29.964Z,7.63
2018-04-18T08:41:56.672Z,8.37
2018-04-18T08:44:23.400Z,7.77
2018-04-18T08:46:50.097Z,8.23
2018-04-18T08:49:16.799Z,8.23
2018-04-18T08:51:43.500Z,8.10
2018-04-18T08:54:10.207Z,7.93
2018-04-18T08:56:36.939Z,9.67
2018-04-18T08:59:03.650Z,8.73
2018-04-18T09:01:30.352Z,8.70
2018-04-18T09:03:57.055Z,7.93
2018-04-18T09:06:23.769Z,7.47
2018-04-18T09:08:50.508Z,8.43
2018-04-18T09:11:17.211Z,7.83
2018-04-18T09:13:43.935Z,8.93
2018-04-18T09:16:10.649Z,8.37
2018-04-18T09:18:37.351Z,7.77
2018-04-18T09:21:04.082Z,7.50
2018-04-18T09:23:30.795Z,6.87
2018-04-18T09:25:57.507Z,7.80
2018-04-18T09:28:24.215Z,8.37
2018-04-18T09:33:25.672Z,8.47
2018-04-18T09:35:52.372Z,7.93
2018-04-18T09:38:19.068Z,7.30
2018-04-18T09:40:45.776Z,7.67
2018-04-18T09:43:12.476Z,7.43
2018-04-18T09:45:39.206Z,7.13
2018-04-18T09:48:05.912Z,7.13
2018-04-18T09:50:32.716Z,7.10
2018-04-18T09:52:59.427Z,7.03
2018-04-18T09:55:26.128Z,7.90
2018-04-18T09:57:52.857Z,6.70
2018-04-18T10:00:19.552Z,6.40
2018-04-18T10:03:04.960Z,6.17
2018-04-18T10:05:31.660Z,6.43
2018-04-18T10:07:58.365Z,6.70
2018-04-18T10:10:25.067Z,6.80
2018-04-18T10:12:51.771Z,6.30
2018-04-18T10:15:18.500Z,6.63
2018-04-18T10:17:45.216Z,5.80
2018-04-18T10:20:12.029Z,5.90
2018-04-18T10:22:38.741Z,6.20
2018-04-18T10:25:05.455Z,6.30
2018-04-18T10:27:32.192Z,6.20
2018-04-18T10:29:58.907Z,6.97
2018-04-18T10:32:25.607Z,6.73
2018-04-18T10:34:52.315Z,5.73
2018-04-18T10:37:19.015Z,5.90
2018-04-18T10:39:45.742Z,6.20
2018-04-18T10:42:12.449Z,6.20
2018-04-18T10:44:39.156Z,6.43
2018-04-18T10:47:05.868Z,5.97
2018-04-18T10:49:32.569Z,6.77
2018-04-18T10:51:59.299Z,6.83
2018-04-18T10:54:26.001Z,6.87
2018-04-18T10:56:52.703Z,6.53
2018-04-18T10:59:19.420Z,6.93
2018-04-18T11:01:46.123Z,6.67
2018-04-18T11:04:12.851Z,6.97
2018-04-18T11:06:39.563Z,7.17
2018-04-18T11:09:06.277Z,7.73
2018-04-18T11:11:32.984Z,7.20
2018-04-18T11:13:59.689Z,7.67
2018-04-18T11:16:26.640Z,6.87
2018-04-18T11:18:53.351Z,7.40
2018-04-18T11:21:20.051Z,6.93
2018-04-18T11:23:46.755Z,7.50
2018-04-18T11:26:13.479Z,6.90
2018-04-18T11:28:40.212Z,6.93
2018-04-18T11:37:49.600Z,6.60
2018-04-18T11:40:16.308Z,6.97
2018-04-18T11:42:43.040Z,6.73
2018-04-18T11:45:09.758Z,6.93
2018-04-18T11:47:36.464Z,6.10
2018-04-18T11:50:03.179Z,6.73
2018-04-18T11:52:29.879Z,6.83
2018-04-18T11:54:56.607Z,7.23
2018-04-18T11:57:23.308Z,7.03
2018-04-18T11:59:50.009Z,7.00
2018-04-18T12:02:16.745Z,6.30
2018-04-18T12:04:43.453Z,6.63
2018-04-18T12:07:10.196Z,6.53
2018-04-18T12:09:36.896Z,6.27
2018-04-18T12:12:03.601Z,6.30
2018-04-18T12:14:30.324Z,6.50
2018-04-18T12:16:57.032Z,6.27
2018-04-18T12:19:23.768Z,6.10
2018-04-18T12:21:50.466Z,6.23
2018-04-18T12:24:17.172Z,5.87
2018-04-18T12:26:43.877Z,6.13
2018-04-18T12:29:10.593Z,5.87
2018-04-18T12:31:37.332Z,5.53
2018-04-18T12:34:04.056Z,5.67
2018-04-18T12:36:30.776Z,5.50
2018-04-18T12:38:57.485Z,5.93
2018-04-18T12:41:24.183Z,5.93
2018-04-18T12:43:50.900Z,4.87
2018-04-18T12:46:17.699Z,5.20
2018-04-18T12:48:44.398Z,4.90
2018-04-18T12:51:11.108Z,5.40
2018-04-18T12:53:37.811Z,5.60
2018-04-18T12:56:04.578Z,5.23
2018-04-18T12:58:31.288Z,5.47
2018-04-18T13:00:57.995Z,5.20
2018-04-18T13:03:24.697Z,4.93
2018-04-18T13:05:51.403Z,4.93
2018-04-18T13:08:18.150Z,4.73
2018-04-18T13:10:44.965Z,4.60
2018-04-18T13:13:11.640Z,5.00
2018-04-18T13:15:38.380Z,5.33
2018-04-18T13:18:05.089Z,5.00
2018-04-18T13:20:31.803Z,4.87
2018-04-18T13:22:58.803Z,4.87
2018-04-18T13:25:25.522Z,4.50
2018-04-18T13:27:52.236Z,4.87
2018-04-18T13:30:18.938Z,4.57
2018-04-18T13:32:45.675Z,4.57
2018-04-18T13:35:12.375Z,4.70
2018-04-18T13:37:39.999Z,5.30
2018-04-18T13:40:06.722Z,4.40
2018-04-18T13:42:33.429Z,4.80
2018-04-18T13:45:00.180Z,5.00
2018-04-18T13:47:26.889Z,4.90
2018-04-18T13:49:53.604Z,5.40
2018-04-18T13:52:20.308Z,4.80
2018-04-18T13:54:47.039Z,4.77
2018-04-18T13:57:13.779Z,4.90
2018-04-18T13:59:40.486Z,4.57
2018-04-18T14:02:07.195Z,4.63
2018-04-18T14:04:33.895Z,4.17
2018-04-18T14:07:00.601Z,5.10
2018-04-18T14:09:27.329Z,4.40
2018-04-18T14:11:54.030Z,4.00
2018-04-18T14:14:20.770Z,4.50
2018-04-18T14:16:47.474Z,4.40
2018-04-18T14:19:14.185Z,4.37
2018-04-18T14:21:40.905Z,4.17
2018-04-18T14:24:07.620Z,4.47
2018-04-18T14:26:34.350Z,4.50
2018-04-18T14:29:01.080Z,4.47
2018-04-18T14:31:27.784Z,4.30
2018-04-18T14:33:54.514Z,4.23
2018-04-18T14:36:21.216Z,4.27
2018-04-18T14:38:47.915Z,4.50
2018-04-18T14:41:14.624Z,4.37
2018-04-18T14:43:41.327Z,4.67
2018-04-18T14:46:08.052Z,3.90
2018-04-18T14:48:34.758Z,3.80
2018-04-18T14:51:01.476Z,3.90
2018-04-18T14:53:28.381Z,4.23
2018-04-18T14:55:55.084Z,3.90
2018-04-18T14:58:21.835Z,4.17
2018-04-18T15:00:48.536Z,3.63
2018-04-18T15:03:15.235Z,4.17
2018-04-18T15:05:41.971Z,3.60
2018-04-18T15:08:08.676Z,3.70
2018-04-18T15:10:35.415Z,3.77
2018-04-18T15:13:03.147Z,4.23
2018-04-18T15:15:29.907Z,3.63
2018-04-18T15:17:56.611Z,3.63
2018-04-18T15:20:23.342Z,3.17
2018-04-18T15:22:51.140Z,3.13
2018-04-18T15:25:17.924Z,2.93
2018-04-18T15:27:44.624Z,3.00
2018-04-18T15:30:11.326Z,2.90
2018-04-18T15:32:38.028Z,3.30
2018-04-18T15:35:04.747Z,3.47
2018-04-18T15:37:31.448Z,3.07
2018-04-18T15:39:58.160Z,3.30
2018-04-18T15:42:24.861Z,3.20
2018-04-18T15:44:51.577Z,3.10
2018-04-18T15:47:18.300Z,2.97
2018-04-18T15:49:44.995Z,3.30
2018-04-18T15:52:11.723Z,3.00
2018-04-18T15:54:38.456Z,2.90
2018-04-18T15:57:05.150Z,2.80
2018-04-18T15:59:31.890Z,3.10
2018-04-18T16:01:58.604Z,2.73
2018-04-18T16:04:25.311Z,2.80
2018-04-18T16:06:52.036Z,2.70
2018-04-18T16:09:18.734Z,3.10
2018-04-18T16:11:45.460Z,2.73
2018-04-18T16:14:12.172Z,3.03
2018-04-18T16:16:38.896Z,2.73
2018-04-18T16:19:05.595Z,3.10
2018-04-18T16:21:32.297Z,2.50
2018-04-18T16:23:59.039Z,2.13
2018-04-18T16:26:25.739Z,2.40
2018-04-18T16:28:52.448Z,2.30
2018-04-18T16:31:19.148Z,2.30
2018-04-18T16:33:45.862Z,2.30
2018-04-18T16:36:12.565Z,2.00
2018-04-18T16:38:39.264Z,2.00
2018-04-18T16:41:05.979Z,2.00
2018-04-18T16:43:32.684Z,1.83
2018-04-18T16:45:59.411Z,1.90
2018-04-18T16:48:26.144Z,1.90
2018-04-18T16:50:52.849Z,1.97
2018-04-18T16:53:19.595Z,2.10
2018-04-18T16:55:46.299Z,1.53
2018-04-18T16:58:13.064Z,1.83
2018-04-18T17:00:39.783Z,1.97
2018-04-18T17:03:06.488Z,2.10
2018-04-18T17:05:33.184Z,1.50
2018-04-18T17:08:03.527Z,1.43
2018-04-18T17:10:30.261Z,1.30
2018-04-18T17:12:56.964Z,1.40
2018-04-18T17:15:23.700Z,1.80
2018-04-18T17:17:50.416Z,1.43
2018-04-18T17:20:17.154Z,1.60
2018-04-18T17:22:43.887Z,1.37
2018-04-18T17:25:10.593Z,1.47
2018-04-18T17:27:37.356Z,1.40
2018-04-18T17:30:04.052Z,1.40
2018-04-18T17:32:30.751Z,1.70
2018-04-18T17:34:59.235Z,1.63
2018-04-18T17:37:25.931Z,1.50
2018-04-18T17:39:53.436Z,1.60
2018-04-18T17:42:20.140Z,1.70
2018-04-18T17:44:46.844Z,1.57
2018-04-18T17:47:13.540Z,1.43
2018-04-18T17:49:40.538Z,1.40
2018-04-18T17:52:07.392Z,1.50
2018-04-18T17:54:34.089Z,1.50
2018-04-18T17:57:01.383Z,1.57
2018-04-18T17:59:28.120Z,2.27
2018-04-18T18:01:54.844Z,1.73
2018-04-18T18:04:21.547Z,1.50
2018-04-18T18:06:48.241Z,1.50
2018-04-18T18:09:14.929Z,1.57
2018-04-18T18:11:41.606Z,1.50
2018-04-18T18:14:08.318Z,1.37
2018-04-18T18:16:35.002Z,1.30
2018-04-18T18:19:01.694Z,1.53
2018-04-18T18:21:28.416Z,1.50
2018-04-18T18:23:55.426Z,1.60
2018-04-18T18:26:22.141Z,1.50
2018-04-18T18:28:48.830Z,1.33
2018-04-18T18:31:15.514Z,1.60
2018-04-18T18:33:42.207Z,1.50
2018-04-18T18:36:08.902Z,1.50
2018-04-18T18:38:35.618Z,1.63
2018-04-18T18:41:02.291Z,1.70
2018-04-18T18:43:28.964Z,1.67
2018-04-18T18:45:55.648Z,1.50
2018-04-18T18:48:22.331Z,1.60
2018-04-18T18:50:49.045Z,1.50
2018-04-18T18:53:15.716Z,1.80
2018-04-18T18:55:42.402Z,1.70
2018-04-18T18:58:09.088Z,1.80
2018-04-18T19:00:35.764Z,1.50
2018-04-18T19:03:02.480Z,1.83
2018-04-18T19:05:29.174Z,1.80
2018-04-18T19:07:55.852Z,1.50
2018-04-18T19:10:22.529Z,1.60
2018-04-18T19:12:49.217Z,1.70
2018-04-18T19:15:15.949Z,1.60
2018-04-18T19:17:42.646Z,1.50
2018-04-18T19:20:09.324Z,1.67
2018-04-18T19:22:36.019Z,1.67
2018-04-18T19:25:02.687Z,1.50
2018-04-18T19:27:29.410Z,2.57
2018-04-18T19:29:56.098Z,2.40
2018-04-18T19:32:22.786Z,1.77
2018-04-18T19:34:49.476Z,1.50
2018-04-18T19:37:16.144Z,1.57
2018-04-18T19:39:42.940Z,1.90
2018-04-18T19:42:09.612Z,1.60
2018-04-18T19:44:36.283Z,1.70
2018-04-18T19:47:02.951Z,2.00
2018-04-18T19:49:29.637Z,1.87
2018-04-18T19:51:56.534Z,2.20
2018-04-18T19:54:23.221Z,1.90
2018-04-18T19:56:49.888Z,1.73
2018-04-18T19:59:16.582Z,1.83
2018-04-18T20:01:43.272Z,1.90
2018-04-18T20:04:09.984Z,1.80
2018-04-18T20:06:36.756Z,1.90
2018-04-18T20:09:03.432Z,1.80
2018-04-18T20:11:30.115Z,1.87
2018-04-18T20:13:56.810Z,1.70
2018-04-18T20:16:23.551Z,1.67
2018-04-18T20:18:50.227Z,1.63
2018-04-18T20:21:16.904Z,1.70
2018-04-18T20:23:43.575Z,1.67
2018-04-18T20:26:10.243Z,1.60
2018-04-18T20:28:36.977Z,1.70
2018-04-18T20:31:03.661Z,1.80
2018-04-18T20:33:30.350Z,1.60
2018-04-18T20:35:57.050Z,1.80
2018-04-18T20:38:23.736Z,1.53
2018-04-18T20:40:50.446Z,1.53
2018-04-18T20:43:17.129Z,1.63
2018-04-18T20:45:43.807Z,1.50
2018-04-18T20:48:10.529Z,1.70
2018-04-18T20:50:37.207Z,1.70
2018-04-18T20:53:03.918Z,1.60
2018-04-18T20:55:30.617Z,1.90
2018-04-18T20:57:57.356Z,1.70
2018-04-18T21:00:24.228Z,1.67
2018-04-18T21:02:50.914Z,1.93
2018-04-18T21:05:17.633Z,1.80
2018-04-18T21:07:44.307Z,1.77
2018-04-18T21:10:10.989Z,1.50
2018-04-18T21:12:37.681Z,1.50
2018-04-18T21:15:04.362Z,1.60
2018-04-18T21:17:31.069Z,1.53
2018-04-18T21:19:57.753Z,1.60
2018-04-18T21:22:24.448Z,1.60
2018-04-18T21:24:51.120Z,1.80
2018-04-18T21:27:17.811Z,1.83
2018-04-18T21:29:44.521Z,1.80
2018-04-18T21:32:11.206Z,1.60
2018-04-18T21:34:37.891Z,1.70
2018-04-18T21:37:04.582Z,1.50
2018-04-18T21:39:31.261Z,1.53
2018-04-18T21:41:57.956Z,1.70
2018-04-18T21:44:24.646Z,1.53
2018-04-18T21:46:51.339Z,1.57
2018-04-18T21:49:18.030Z,1.53
2018-04-18T21:51:44.713Z,1.30
2018-04-18T21:54:11.405Z,1.60
2018-04-18T21:56:38.090Z,1.40
2018-04-18T21:59:04.777Z,1.60
2018-04-18T22:01:31.447Z,1.40
2018-04-18T22:03:58.446Z,1.50
2018-04-18T22:06:25.290Z,1.33
2018-04-18T22:08:51.998Z,1.50
2018-04-18T22:11:18.969Z,1.30
2018-04-18T22:13:45.667Z,1.20
2018-04-18T22:16:12.344Z,1.40
2018-04-18T22:18:39.062Z,1.30
2018-04-18T22:21:05.831Z,1.40
2018-04-18T22:23:32.497Z,1.20
2018-04-18T22:25:59.181Z,1.40
2018-04-18T22:28:25.843Z,1.47
2018-04-18T22:30:52.583Z,1.60
2018-04-18T22:33:19.262Z,1.30
2018-04-18T22:35:45.986Z,1.40
2018-04-18T22:38:12.663Z,1.50
2018-04-18T22:40:39.367Z,1.30
2018-04-18T22:43:06.078Z,1.30
2018-04-18T22:45:32.790Z,1.33
2018-04-18T22:47:59.474Z,1.40
2018-04-18T22:50:26.176Z,1.30
2018-04-18T22:52:52.852Z,1.33
2018-04-18T22:55:19.556Z,1.20
2018-04-18T22:57:46.233Z,1.33
2018-04-18T23:00:12.948Z,1.57
2018-04-18T23:02:39.633Z,1.30
2018-04-18T23:05:06.300Z,1.40
2018-04-18T23:07:33.024Z,1.50
2018-04-18T23:09:59.699Z,1.30
2018-04-18T23:12:26.392Z,1.20
2018-04-18T23:14:53.060Z,1.37
2018-04-18T23:17:19.745Z,1.40
2018-04-18T23:19:46.440Z,1.30
2018-04-18T23:22:13.129Z,1.37
2018-04-18T23:24:39.817Z,1.23
2018-04-18T23:27:06.506Z,1.30
2018-04-18T23:29:33.184Z,1.20
2018-04-18T23:31:59.859Z,1.20
2018-04-18T23:34:26.544Z,1.40
2018-04-18T23:36:53.271Z,1.13
2018-04-18T23:39:19.956Z,1.43
2018-04-18T23:41:46.665Z,1.50
2018-04-18T23:44:13.335Z,1.37
2018-04-18T23:46:40.023Z,1.10
2018-04-18T23:49:06.733Z,1.40
2018-04-18T23:51:33.427Z,1.20
2018-04-18T23:54:00.095Z,1.37
2018-04-18T23:56:26.764Z,1.30
2018-04-18T23:58:53.484Z,1.20
